Time;durP1;ratioP1;P1;durP2;ratioP2;P2;SDS_P1;SDS_P2;PMS_P1;PMS_P2;Temp;Humidity;BMP_temperature;BMP_pressure;BME280_temperature;BME280_humidity;BME280_pressure;Samples;Min_cycle;Max_cycle;Signal;HPM_P1;HPM_P2
2021/01/12 00:00:19;;;;;;;13.30;4.00;;;9.30;81.20;;;;;;5061030;28;20190;-96
2021/01/12 00:02:45;;;;;;;12.27;4.60;;;9.30;81.20;;;;;;5058817;28;20218;-94
2021/01/12 00:05:12;;;;;;;15.33;3.90;;;9.20;81.10;;;;;;5049380;28;20178;-93
2021/01/12 00:07:38;;;;;;;10.30;4.47;;;9.30;81.50;;;;;;5047804;28;20263;-94
2021/01/12 00:10:05;;;;;;;10.05;3.75;;;9.40;81.30;;;;;;5054250;28;20202;-95
2021/01/12 00:12:31;;;;;;;6.53;3.30;;;9.30;81.20;;;;;;5056614;28;20185;-93
2021/01/12 00:14:57;;;;;;;10.07;3.20;;;9.20;81.60;;;;;;5055729;28;20190;-95
2021/01/12 00:17:23;;;;;;;5.20;3.63;;;9.30;81.80;;;;;;5052920;28;20249;-95
2021/01/12 00:19:48;;;;;;;6.70;3.60;;;9.40;81.70;;;;;;5055942;28;20445;-94
2021/01/12 00:22:14;;;;;;;6.40;3.00;;;9.50;81.60;;;;;;5054934;28;20239;-94
2021/01/12 00:24:44;;;;;;;7.37;3.70;;;9.50;81.40;;;;;;5053579;28;20178;-95
2021/01/12 00:27:11;;;;;;;9.18;3.65;;;9.30;81.90;;;;;;5050313;28;20424;-94
2021/01/12 00:29:37;;;;;;;7.25;3.28;;;9.30;81.90;;;;;;5050258;28;20204;-94
2021/01/12 00:32:03;;;;;;;7.32;3.33;;;9.30;82.30;;;;;;5055165;28;20174;-94
2021/01/12 00:34:29;;;;;;;12.32;3.97;;;9.30;82.40;;;;;;5058283;28;20182;-94
2021/01/12 00:36:55;;;;;;;5.37;3.90;;;9.20;82.30;;;;;;5055445;28;20205;-94
2021/01/12 00:39:21;;;;;;;11.37;3.90;;;9.40;82.40;;;;;;5056678;28;20193;-94
2021/01/12 00:41:55;;;;;;;6.65;3.90;;;9.40;82.20;;;;;;5059237;28;20923;-95
2021/01/12 00:44:22;;;;;;;8.85;3.40;;;9.20;82.20;;;;;;5049120;28;20190;-94
2021/01/12 00:46:48;;;;;;;5.95;3.00;;;9.30;82.50;;;;;;5046923;28;20174;-94
2021/01/12 00:49:19;;;;;;;3.87;2.90;;;9.30;82.70;;;;;;5048523;28;20261;-94
2021/01/12 00:51:46;;;;;;;8.57;3.38;;;9.40;82.60;;;;;;5049214;28;20868;-94
2021/01/12 00:54:14;;;;;;;11.27;2.88;;;9.20;82.50;;;;;;5049758;28;20277;-94
2021/01/12 00:56:40;;;;;;;11.80;3.22;;;9.20;83.30;;;;;;5047764;28;20174;-95
2021/01/12 00:59:06;;;;;;;8.73;3.38;;;9.20;83.10;;;;;;5051065;28;20205;-94
2021/01/12 01:01:32;;;;;;;5.95;3.22;;;9.20;83.20;;;;;;5047674;28;20181;-94
2021/01/12 01:03:58;;;;;;;6.40;3.50;;;9.30;83.30;;;;;;5044814;28;20220;-94
2021/01/12 01:06:25;;;;;;;13.32;3.05;;;9.10;83.40;;;;;;5045263;28;20241;-94
2021/01/12 01:08:52;;;;;;;11.40;3.78;;;9.20;83.70;;;;;;5045704;28;20570;-94
2021/01/12 01:11:18;;;;;;;11.82;4.18;;;9.30;83.40;;;;;;5058329;28;20169;-96
2021/01/12 01:13:44;;;;;;;4.20;3.80;;;9.30;83.60;;;;;;5059743;28;20169;-95
2021/01/12 01:16:10;;;;;;;6.83;3.20;;;9.30;84.00;;;;;;5059818;28;20158;-96
2021/01/12 01:18:36;;;;;;;6.50;3.60;;;9.30;83.90;;;;;;5059792;28;20178;-93
2021/01/12 01:21:02;;;;;;;6.95;3.50;;;9.30;83.70;;;;;;5059527;28;20190;-95
2021/01/12 01:23:28;;;;;;;4.25;2.83;;;9.10;84.90;;;;;;5059657;28;20197;-95
2021/01/12 01:25:54;;;;;;;6.93;3.57;;;9.20;84.50;;;;;;5059483;28;20166;-95
2021/01/12 01:28:21;;;;;;;5.53;3.25;;;9.20;84.20;;;;;;5059474;28;20440;-96
2021/01/12 01:30:48;;;;;;;4.72;3.30;;;9.30;84.00;;;;;;5059483;28;20186;-96
2021/01/12 01:33:13;;;;;;;10.10;3.35;;;9.20;84.30;;;;;;5059593;28;20193;-96
2021/01/12 01:35:41;;;;;;;10.57;3.03;;;9.30;84.20;;;;;;5059204;28;20205;-94
2021/01/12 01:38:06;;;;;;;5.88;3.28;;;9.40;83.80;;;;;;5059494;28;20409;-93
2021/01/12 01:40:32;;;;;;;10.33;3.27;;;9.40;84.10;;;;;;5058939;28;20237;-95
2021/01/12 01:42:58;;;;;;;2.57;2.37;;;9.50;83.90;;;;;;5059114;28;20190;-94
2021/01/12 01:45:24;;;;;;;3.50;2.80;;;9.40;84.00;;;;;;5056136;28;20436;-93
2021/01/12 01:47:51;;;;;;;2.67;2.47;;;9.40;83.80;;;;;;5042326;28;20432;-94
2021/01/12 01:50:21;;;;;;;4.18;2.50;;;9.50;83.90;;;;;;5040582;28;20460;-94
2021/01/12 01:52:54;;;;;;;3.55;2.60;;;9.50;83.70;;;;;;5042341;28;20643;-94
2021/01/12 01:55:22;;;;;;;4.47;2.85;;;9.50;83.80;;;;;;5043252;28;20649;-94
2021/01/12 01:57:48;;;;;;;3.45;2.45;;;9.60;83.50;;;;;;5040180;28;20208;-94
2021/01/12 02:00:17;;;;;;;3.03;2.50;;;9.50;83.50;;;;;;5042595;28;20205;-95
2021/01/12 02:02:57;;;;;;;2.97;2.60;;;9.40;84.00;;;;;;5047812;28;20456;-94
2021/01/12 02:05:28;;;;;;;5.70;3.38;;;9.40;84.50;;;;;;5049940;28;20269;-94
2021/01/12 02:07:58;;;;;;;5.90;3.50;;;9.40;84.40;;;;;;5048747;28;20165;-94
2021/01/12 02:10:25;;;;;;;3.78;3.10;;;9.60;84.40;;;;;;5046912;28;20200;-95
2021/01/12 02:13:13;;;;;;;5.93;2.25;;;9.60;84.00;;;;;;5047261;28;20613;-94
2021/01/12 02:15:40;;;;;;;6.57;2.45;;;9.60;84.00;;;;;;5045651;28;20647;-95
2021/01/12 02:18:08;;;;;;;8.18;3.00;;;9.60;83.70;;;;;;5046449;28;20181;-95
2021/01/12 02:20:34;;;;;;;3.90;3.60;;;9.50;84.00;;;;;;5049746;28;20221;-95
2021/01/12 02:23:14;;;;;;;6.53;2.80;;;9.60;84.40;;;;;;5046750;28;20210;-94
2021/01/12 02:25:41;;;;;;;4.65;3.25;;;9.50;84.40;;;;;;5048724;28;20166;-94
2021/01/12 02:28:09;;;;;;;5.43;3.42;;;9.50;84.80;;;;;;5046160;28;20193;-94
2021/01/12 02:30:38;;;;;;;2.72;2.47;;;9.60;84.30;;;;;;5046770;28;20201;-94
2021/01/12 02:33:06;;;;;;;4.18;3.28;;;9.70;84.50;;;;;;5044994;28;20174;-95
2021/01/12 02:35:36;;;;;;;6.10;3.13;;;9.60;84.40;;;;;;5048932;28;20182;-95
2021/01/12 02:38:03;;;;;;;4.85;2.75;;;9.70;84.60;;;;;;5047285;28;20182;-95
2021/01/12 02:40:29;;;;;;;7.57;3.22;;;9.80;84.10;;;;;;5049052;28;20232;-95
2021/01/12 02:42:55;;;;;;;5.95;3.15;;;9.70;84.00;;;;;;5048723;28;20205;-95
2021/01/12 02:45:21;;;;;;;6.67;3.00;;;9.80;83.90;;;;;;5046099;28;20178;-95
2021/01/12 02:47:47;;;;;;;8.95;3.45;;;9.80;83.90;;;;;;5046121;28;20674;-95
2021/01/12 02:50:15;;;;;;;6.38;3.67;;;9.80;84.00;;;;;;5044105;28;20202;-95
2021/01/12 02:52:45;;;;;;;5.10;3.47;;;9.70;84.10;;;;;;5046401;28;20177;-95
2021/01/12 02:55:12;;;;;;;9.88;3.90;;;9.70;84.50;;;;;;5048383;28;20186;-95
2021/01/12 02:57:38;;;;;;;3.58;2.95;;;9.80;84.20;;;;;;5046866;28;20208;-95
2021/01/12 03:00:06;;;;;;;6.78;3.53;;;9.70;84.60;;;;;;5047977;28;20244;-94
2021/01/12 03:02:32;;;;;;;5.05;3.60;;;9.80;84.70;;;;;;5049073;28;20291;-95
2021/01/12 03:04:58;;;;;;;4.25;2.95;;;9.80;84.70;;;;;;5049023;28;20201;-94
2021/01/12 03:07:24;;;;;;;8.20;4.10;;;9.90;84.60;;;;;;5048186;28;20669;-95
2021/01/12 03:09:50;;;;;;;11.23;3.87;;;9.80;84.60;;;;;;5045614;28;20284;-94
2021/01/12 03:12:15;;;;;;;5.33;3.87;;;9.80;84.30;;;;;;5045047;28;20412;-94
2021/01/12 03:14:42;;;;;;;5.73;3.20;;;9.80;84.50;;;;;;5045122;28;20181;-94
2021/01/12 03:17:11;;;;;;;5.50;3.45;;;9.80;84.20;;;;;;5043707;28;20521;-94
2021/01/12 03:19:37;;;;;;;7.50;3.50;;;9.90;84.50;;;;;;5041679;28;20244;-95
2021/01/12 03:22:03;;;;;;;7.07;4.47;;;9.80;84.40;;;;;;5042848;28;20178;-95
2021/01/12 03:24:29;;;;;;;7.63;3.55;;;9.80;84.90;;;;;;5041444;28;20185;-94
2021/01/12 03:26:55;;;;;;;5.53;3.93;;;9.80;84.60;;;;;;5042906;28;20190;-94
2021/01/12 03:29:21;;;;;;;10.57;4.83;;;9.80;84.80;;;;;;5042058;28;20198;-95
2021/01/12 03:31:46;;;;;;;11.40;3.40;;;9.90;84.90;;;;;;5042946;28;20312;-94
2021/01/12 03:34:12;;;;;;;5.23;3.63;;;9.90;84.90;;;;;;5042825;28;20531;-95
2021/01/12 03:36:38;;;;;;;4.37;3.60;;;9.90;84.50;;;;;;5044754;28;20184;-95
2021/01/12 03:39:05;;;;;;;5.97;4.20;;;10.00;84.50;;;;;;5043448;28;20479;-94
2021/01/12 03:41:34;;;;;;;5.93;4.18;;;9.90;84.20;;;;;;5044824;28;20216;-94
2021/01/12 03:44:00;;;;;;;12.77;4.55;;;9.90;84.60;;;;;;5044996;28;20210;-95
2021/01/12 03:46:27;;;;;;;11.82;3.83;;;9.90;85.10;;;;;;5041233;28;20182;-94
2021/01/12 03:48:53;;;;;;;6.18;3.85;;;9.90;84.70;;;;;;5041381;28;20185;-94
2021/01/12 03:51:23;;;;;;;7.38;3.75;;;10.00;84.40;;;;;;5042076;28;20178;-94
2021/01/12 03:53:48;;;;;;;9.60;3.63;;;10.00;84.20;;;;;;5042383;28;20178;-94
2021/01/12 03:56:14;;;;;;;4.40;2.97;;;10.10;84.80;;;;;;5046449;28;20178;-95
2021/01/12 03:58:40;;;;;;;5.57;3.73;;;10.10;84.30;;;;;;5050674;28;20258;-94
2021/01/12 04:01:06;;;;;;;8.40;3.08;;;10.00;84.60;;;;;;5038978;28;20683;-95
2021/01/12 04:03:32;;;;;;;3.58;2.88;;;10.10;84.70;;;;;;5041367;28;20236;-94
2021/01/12 04:06:01;;;;;;;5.17;3.10;;;10.20;84.00;;;;;;5043275;28;20173;-94
2021/01/12 04:08:27;;;;;;;6.65;3.58;;;10.20;83.80;;;;;;5047006;28;20412;-94
2021/01/12 04:10:53;;;;;;;4.00;2.83;;;10.00;84.40;;;;;;5060943;28;20244;-95
2021/01/12 04:13:18;;;;;;;7.83;2.80;;;10.10;84.80;;;;;;5061141;28;20225;-96
2021/01/12 04:15:44;;;;;;;3.70;2.60;;;10.00;85.10;;;;;;5060578;28;20727;-95
2021/01/12 04:18:10;;;;;;;4.37;2.80;;;10.10;85.20;;;;;;5060169;28;20226;-94
2021/01/12 04:20:36;;;;;;;5.30;3.30;;;10.10;85.20;;;;;;5059666;28;20201;-94
2021/01/12 04:23:01;;;;;;;11.67;3.30;;;10.00;85.50;;;;;;5060292;28;20460;-94
2021/01/12 04:25:27;;;;;;;10.33;3.00;;;10.20;85.10;;;;;;5059985;28;20443;-94
2021/01/12 04:27:53;;;;;;;4.00;3.00;;;10.10;85.20;;;;;;5059663;28;20435;-94
2021/01/12 04:30:19;;;;;;;6.80;3.80;;;10.10;84.90;;;;;;5058672;28;20201;-94
2021/01/12 04:32:45;;;;;;;5.80;4.13;;;10.20;84.80;;;;;;5059176;28;20162;-94
2021/01/12 04:35:11;;;;;;;7.43;4.10;;;10.20;84.60;;;;;;5056271;28;20425;-95
2021/01/12 04:37:37;;;;;;;5.68;3.10;;;10.30;84.40;;;;;;5050870;28;20166;-94
2021/01/12 04:40:03;;;;;;;6.90;3.10;;;10.20;84.60;;;;;;5049775;28;20245;-94
2021/01/12 04:42:33;;;;;;;5.60;3.25;;;10.20;84.50;;;;;;5052647;28;20296;-93
2021/01/12 04:45:04;;;;;;;5.18;3.22;;;10.20;84.50;;;;;;5059424;28;20181;-92
2021/01/12 04:47:30;;;;;;;5.78;2.95;;;10.20;84.50;;;;;;5060480;28;20150;-94
2021/01/12 04:49:56;;;;;;;10.40;3.30;;;10.20;84.60;;;;;;5036350;28;20296;-94
2021/01/12 04:52:22;;;;;;;5.20;2.90;;;10.10;84.90;;;;;;5044321;28;20202;-94
2021/01/12 04:54:53;;;;;;;5.13;3.57;;;10.00;85.60;;;;;;5043547;28;20170;-94
2021/01/12 04:57:18;;;;;;;9.65;3.42;;;10.10;85.70;;;;;;5044044;28;20420;-94
2021/01/12 04:59:44;;;;;;;6.90;2.83;;;10.10;85.80;;;;;;5041689;28;20197;-94
2021/01/12 05:02:13;;;;;;;5.55;2.45;;;10.10;85.40;;;;;;5044272;28;20193;-94
2021/01/12 05:04:42;;;;;;;6.22;3.10;;;10.00;85.50;;;;;;5047103;28;20220;-95
2021/01/12 05:07:09;;;;;;;6.10;3.35;;;10.00;86.00;;;;;;5048442;28;20714;-94
2021/01/12 05:09:38;;;;;;;6.72;3.70;;;10.10;86.10;;;;;;5044417;28;20208;-94
2021/01/12 05:12:06;;;;;;;3.80;3.20;;;10.10;85.90;;;;;;5043398;28;20211;-94
2021/01/12 05:14:36;;;;;;;2.55;2.35;;;10.10;85.70;;;;;;5046049;28;20189;-94
2021/01/12 05:17:04;;;;;;;16.05;4.13;;;10.00;85.60;;;;;;5047685;28;20193;-95
2021/01/12 05:19:32;;;;;;;9.50;3.40;;;10.00;85.90;;;;;;5050095;28;20201;-94
2021/01/12 05:22:05;;;;;;;11.07;2.85;;;10.20;85.50;;;;;;5045362;28;20173;-94
2021/01/12 05:24:42;;;;;;;7.03;2.47;;;10.20;85.40;;;;;;5042468;28;20182;-94
2021/01/12 05:27:11;;;;;;;3.38;2.65;;;10.20;85.10;;;;;;5041680;28;20193;-93
2021/01/12 05:29:39;;;;;;;5.28;2.75;;;10.20;85.00;;;;;;5043552;28;20206;-93
2021/01/12 05:32:10;;;;;;;6.57;3.20;;;10.20;85.10;;;;;;5044981;28;20665;-93
2021/01/12 05:34:38;;;;;;;3.45;2.85;;;10.20;85.10;;;;;;5043691;28;20643;-93
2021/01/12 05:37:06;;;;;;;5.22;2.70;;;10.30;85.00;;;;;;5043657;28;20197;-94
2021/01/12 05:39:37;;;;;;;4.80;2.97;;;10.30;85.00;;;;;;5043667;28;20234;-93
2021/01/12 05:42:06;;;;;;;5.38;3.10;;;10.20;85.10;;;;;;5044042;28;20294;-93
2021/01/12 05:44:39;;;;;;;7.00;3.90;;;10.10;85.40;;;;;;5040557;28;20193;-93
2021/01/12 05:47:06;;;;;;;7.95;4.13;;;10.10;85.70;;;;;;5020232;28;20166;-94
2021/01/12 05:49:32;;;;;;;5.00;3.70;;;10.10;85.90;;;;;;5024565;28;20199;-93
2021/01/12 05:51:58;;;;;;;4.57;4.18;;;10.20;85.80;;;;;;5026264;28;20171;-94
2021/01/12 05:54:26;;;;;;;10.00;3.70;;;10.30;85.60;;;;;;5025693;28;20242;-93
2021/01/12 05:57:07;;;;;;;10.00;4.03;;;10.20;85.20;;;;;;5047890;28;20428;-93
2021/01/12 05:59:34;;;;;;;7.25;3.90;;;10.00;85.80;;;;;;5048731;28;20292;-94
2021/01/12 06:02:09;;;;;;;7.32;4.32;;;10.10;86.00;;;;;;5047458;28;20182;-94
2021/01/12 06:04:36;;;;;;;8.10;4.45;;;10.20;86.00;;;;;;5045884;28;20177;-94
2021/01/12 06:07:03;;;;;;;6.15;4.97;;;10.30;85.40;;;;;;5045735;28;20188;-93
2021/01/12 06:09:29;;;;;;;13.48;4.90;;;10.10;85.50;;;;;;5044630;28;20225;-94
2021/01/12 06:11:56;;;;;;;7.33;5.03;;;10.10;86.30;;;;;;5047272;28;20177;-93
2021/01/12 06:14:26;;;;;;;9.00;5.25;;;10.20;86.20;;;;;;5044145;28;20451;-93
2021/01/12 06:16:53;;;;;;;8.52;5.00;;;10.10;86.40;;;;;;5045688;28;20257;-94
2021/01/12 06:19:21;;;;;;;6.43;5.00;;;10.20;85.90;;;;;;5052136;28;20286;-93
2021/01/12 06:21:56;;;;;;;13.60;6.20;;;10.30;85.60;;;;;;5046401;28;20204;-94
2021/01/12 06:24:38;;;;;;;10.40;6.30;;;10.30;85.40;;;;;;5039727;28;20209;-93
2021/01/12 06:27:15;;;;;;;14.38;6.80;;;10.40;85.40;;;;;;5041666;28;20181;-94
2021/01/12 06:29:43;;;;;;;11.93;6.95;;;10.30;85.10;;;;;;5040938;28;20288;-94
2021/01/12 06:32:09;;;;;;;12.05;6.70;;;10.40;85.00;;;;;;5039260;28;20224;-93
2021/01/12 06:34:38;;;;;;;13.33;8.57;;;10.40;85.20;;;;;;5039297;28;20199;-94
2021/01/12 06:37:04;;;;;;;12.43;7.63;;;10.40;85.00;;;;;;5041006;28;20178;-93
2021/01/12 06:39:42;;;;;;;18.90;8.15;;;10.30;85.30;;;;;;5040290;28;20193;-93
2021/01/12 06:42:10;;;;;;;9.63;7.03;;;10.30;85.30;;;;;;5040787;28;20170;-94
2021/01/12 06:44:38;;;;;;;11.52;7.72;;;10.40;85.10;;;;;;5044291;28;20189;-93
2021/01/12 06:47:09;;;;;;;12.95;8.18;;;10.30;85.10;;;;;;5046938;28;20238;-94
2021/01/12 06:49:35;;;;;;;12.20;8.18;;;10.30;85.50;;;;;;5041619;28;20678;-94
2021/01/12 06:52:03;;;;;;;15.60;7.22;;;10.30;85.20;;;;;;5038829;28;20296;-93
2021/01/12 06:54:44;;;;;;;16.13;8.35;;;10.30;85.60;;;;;;5040855;28;20184;-93
2021/01/12 06:57:32;;;;;;;13.68;7.85;;;10.50;85.20;;;;;;5040585;28;20181;-94
2021/01/12 06:59:57;;;;;;;19.35;8.00;;;10.40;85.00;;;;;;5026206;28;20210;-94
2021/01/12 07:02:30;;;;;;;11.70;6.73;;;10.30;85.40;;;;;;5044103;28;20184;-94
2021/01/12 07:05:05;;;;;;;20.27;6.68;;;10.40;85.20;;;;;;5042584;28;20247;-94
2021/01/12 07:07:36;;;;;;;14.18;6.78;;;10.40;84.80;;;;;;5042888;28;20181;-94
2021/01/12 07:10:17;;;;;;;13.65;4.38;;;10.20;85.50;;;;;;5043597;28;20663;-94
2021/01/12 07:12:43;;;;;;;17.95;7.05;;;10.20;85.80;;;;;;5042308;28;20178;-94
2021/01/12 07:15:16;;;;;;;9.80;4.55;;;10.30;85.70;;;;;;5045136;28;20173;-94
2021/01/12 07:17:46;;;;;;;9.25;4.15;;;10.30;85.40;;;;;;5050275;28;20249;-94
2021/01/12 07:20:21;;;;;;;13.00;3.90;;;10.20;85.60;;;;;;5049564;28;20198;-93
2021/01/12 07:23:03;;;;;;;7.90;4.13;;;10.30;85.60;;;;;;5042151;28;20565;-93
2021/01/12 07:25:35;;;;;;;12.57;3.80;;;10.20;85.50;;;;;;5040410;28;20174;-94
2021/01/12 07:28:14;;;;;;;5.85;3.17;;;10.10;86.30;;;;;;5036486;28;20230;-93
2021/01/12 07:30:41;;;;;;;8.63;3.35;;;10.00;86.40;;;;;;5037320;28;20198;-93
2021/01/12 07:33:09;;;;;;;12.57;3.42;;;9.90;87.20;;;;;;5040070;28;20193;-92
2021/01/12 07:35:36;;;;;;;4.38;3.33;;;10.10;87.20;;;;;;5042406;28;20212;-92
2021/01/12 07:38:03;;;;;;;10.27;3.65;;;10.10;87.50;;;;;;5039883;28;20257;-92
2021/01/12 07:40:29;;;;;;;9.57;3.40;;;10.20;86.70;;;;;;5048835;28;20289;-93
2021/01/12 07:42:57;;;;;;;8.05;3.88;;;9.80;87.40;;;;;;5049398;28;20210;-93
2021/01/12 07:45:25;;;;;;;7.78;3.35;;;9.90;87.90;;;;;;5047041;28;20186;-93
2021/01/12 07:47:57;;;;;;;8.18;3.72;;;9.80;88.20;;;;;;5046285;28;20197;-92
2021/01/12 07:50:26;;;;;;;6.53;2.95;;;9.70;88.40;;;;;;5039168;28;20202;-92
2021/01/12 07:52:52;;;;;;;8.93;4.45;;;9.80;88.10;;;;;;5042502;28;20178;-92
2021/01/12 07:55:18;;;;;;;9.10;2.92;;;9.80;87.70;;;;;;5039305;28;20235;-93
2021/01/12 07:57:48;;;;;;;13.30;3.53;;;9.70;88.00;;;;;;5037211;28;20657;-92
2021/01/12 08:00:16;;;;;;;18.10;2.83;;;9.80;87.80;;;;;;5036468;28;20456;-91
2021/01/12 08:02:53;;;;;;;16.17;2.50;;;9.40;88.70;;;;;;5044122;28;20212;-94
2021/01/12 08:05:21;;;;;;;4.47;2.15;;;9.30;89.30;;;;;;5033226;28;20580;-92
2021/01/12 08:07:47;;;;;;;10.02;2.55;;;9.50;89.30;;;;;;5018587;28;20266;-93
2021/01/12 08:10:13;;;;;;;9.40;2.22;;;9.40;89.30;;;;;;5026699;28;20240;-92
2021/01/12 08:12:40;;;;;;;9.25;2.55;;;9.40;89.20;;;;;;5035920;28;20239;-93
2021/01/12 08:15:14;;;;;;;3.53;2.15;;;9.30;89.20;;;;;;5034933;28;20181;-93
2021/01/12 08:17:47;;;;;;;5.47;2.22;;;9.20;89.10;;;;;;5037097;28;20178;-92
2021/01/12 08:20:15;;;;;;;7.55;1.90;;;9.30;88.80;;;;;;5035153;28;20229;-93
2021/01/12 08:22:47;;;;;;;6.57;2.30;;;9.40;88.60;;;;;;5035510;28;20209;-92
2021/01/12 08:25:13;;;;;;;5.20;2.45;;;9.20;88.80;;;;;;5037467;28;20181;-92
2021/01/12 08:27:50;;;;;;;15.27;2.90;;;9.20;89.10;;;;;;5035615;28;20204;-90
2021/01/12 08:30:24;;;;;;;18.75;2.95;;;9.20;88.90;;;;;;5036940;28;20335;-92
2021/01/12 08:33:08;;;;;;;8.95;2.40;;;9.20;88.90;;;;;;5035432;28;20181;-91
2021/01/12 08:35:39;;;;;;;8.70;2.67;;;9.30;88.40;;;;;;5042146;28;20169;-94
2021/01/12 08:38:07;;;;;;;10.88;4.03;;;9.40;88.00;;;;;;5036717;28;20180;-91
2021/01/12 08:40:34;;;;;;;9.95;3.50;;;9.30;87.80;;;;;;5043893;28;20201;-94
2021/01/12 08:43:05;;;;;;;5.72;3.15;;;9.30;87.90;;;;;;5045455;28;20210;-91
2021/01/12 08:45:34;;;;;;;7.50;2.92;;;9.10;88.10;;;;;;5036609;28;20666;-93
2021/01/12 08:48:29;;;;;;;13.57;4.47;;;9.00;88.10;;;;;;5037532;28;20185;-94
2021/01/12 08:50:55;;;;;;;3.50;2.45;;;9.30;88.10;;;;;;5023439;28;20206;-92
2021/01/12 08:53:29;;;;;;;6.83;2.50;;;9.20;87.50;;;;;;5042799;28;20266;-92
2021/01/12 08:56:08;;;;;;;3.92;2.00;;;9.20;87.20;;;;;;5042103;28;20639;-92
2021/01/12 08:58:35;;;;;;;4.60;2.03;;;9.10;87.20;;;;;;5045266;28;20167;-93
2021/01/12 09:01:03;;;;;;;6.55;1.95;;;9.00;87.80;;;;;;5046651;28;20273;-93
2021/01/12 09:03:30;;;;;;;15.80;2.35;;;8.90;88.90;;;;;;5050475;28;20205;-92
2021/01/12 09:05:56;;;;;;;9.40;2.65;;;8.80;89.90;;;;;;5037708;28;20181;-93
2021/01/12 09:08:23;;;;;;;8.05;4.75;;;8.90;90.30;;;;;;5056340;28;20178;-91
2021/01/12 09:10:49;;;;;;;10.13;4.13;;;8.60;90.30;;;;;;5058933;28;20241;-91
2021/01/12 09:13:15;;;;;;;7.40;4.25;;;8.80;91.20;;;;;;5058740;28;20170;-92
2021/01/12 09:15:47;;;;;;;7.50;3.90;;;8.60;90.80;;;;;;5054891;28;20182;-91
2021/01/12 09:18:21;;;;;;;8.73;4.10;;;8.70;90.90;;;;;;5044038;28;20170;-90
2021/01/12 09:20:59;;;;;;;10.50;4.65;;;8.70;90.50;;;;;;5044909;28;20190;-93
2021/01/12 09:23:25;;;;;;;7.53;4.85;;;8.60;91.30;;;;;;5041968;28;20241;-91
2021/01/12 09:25:53;;;;;;;17.25;6.80;;;8.70;91.10;;;;;;5044945;28;20178;-93
2021/01/12 09:28:24;;;;;;;12.35;6.35;;;8.70;91.40;;;;;;5047531;28;20682;-90
2021/01/12 09:30:51;;;;;;;14.88;5.70;;;8.80;91.00;;;;;;5045638;28;20206;-93
2021/01/12 09:33:23;;;;;;;10.60;5.72;;;8.80;90.70;;;;;;5029909;28;20209;-92
2021/01/12 09:36:11;;;;;;;11.45;4.97;;;8.50;90.80;;;;;;5026882;28;20722;-93
2021/01/12 09:38:51;;;;;;;23.48;7.00;;;8.70;91.50;;;;;;5025669;28;20197;-93
2021/01/12 09:41:21;;;;;;;21.02;6.80;;;8.80;90.90;;;;;;5036478;28;20615;-91
2021/01/12 09:43:47;;;;;;;18.98;8.10;;;8.90;89.80;;;;;;5035611;28;20202;-91
2021/01/12 09:46:15;;;;;;;18.77;7.90;;;8.90;89.00;;;;;;5037457;28;20535;-91
2021/01/12 09:48:41;;;;;;;18.70;8.43;;;8.80;88.70;;;;;;5042026;28;20175;-90
2021/01/12 09:51:11;;;;;;;26.33;8.52;;;8.60;88.50;;;;;;5034712;28;20210;-90
2021/01/12 09:53:45;;;;;;;12.50;6.28;;;8.50;88.00;;;;;;5032845;28;20179;-91
2021/01/12 09:56:11;;;;;;;15.23;7.88;;;8.50;87.70;;;;;;5023572;28;20178;-91
2021/01/12 09:58:37;;;;;;;17.13;5.60;;;8.60;87.90;;;;;;5023553;28;20225;-91
2021/01/12 10:01:04;;;;;;;8.93;4.03;;;8.60;87.20;;;;;;5028520;28;20609;-91
2021/01/12 10:03:29;;;;;;;10.18;4.45;;;8.50;86.50;;;;;;5029403;28;20485;-91
2021/01/12 10:05:55;;;;;;;8.33;3.07;;;8.50;86.70;;;;;;5034150;28;20174;-90
2021/01/12 10:08:21;;;;;;;4.10;2.10;;;8.30;86.70;;;;;;5029891;28;20248;-93
2021/01/12 10:10:46;;;;;;;7.27;2.50;;;8.40;86.70;;;;;;5024172;28;20205;-92
2021/01/12 10:13:12;;;;;;;5.83;2.47;;;8.50;86.00;;;;;;5024917;28;20679;-92
2021/01/12 10:15:38;;;;;;;15.63;3.37;;;8.50;85.70;;;;;;5028884;28;20420;-91
2021/01/12 10:18:05;;;;;;;4.10;2.92;;;8.40;84.90;;;;;;5030829;28;20440;-92
2021/01/12 10:20:31;;;;;;;7.75;3.17;;;8.30;85.50;;;;;;5026400;28;20717;-92
2021/01/12 10:22:57;;;;;;;5.40;2.73;;;8.50;85.40;;;;;;5022741;28;20229;-91
2021/01/12 10:25:23;;;;;;;6.10;2.50;;;8.40;85.10;;;;;;5023037;28;20265;-92
2021/01/12 10:27:48;;;;;;;7.90;1.87;;;8.40;84.10;;;;;;5023512;28;20463;-92
2021/01/12 10:30:15;;;;;;;2.20;1.60;;;8.20;83.30;;;;;;5017694;28;20198;-92
2021/01/12 10:32:41;;;;;;;6.47;2.22;;;7.90;82.40;;;;;;5027964;28;20421;-91
2021/01/12 10:35:08;;;;;;;3.35;2.00;;;8.00;83.10;;;;;;5036833;28;20204;-91
2021/01/12 10:37:34;;;;;;;5.25;2.20;;;7.90;82.20;;;;;;5036404;28;20188;-91
2021/01/12 10:39:59;;;;;;;4.63;2.28;;;8.20;83.00;;;;;;5035195;28;20202;-91
2021/01/12 10:42:25;;;;;;;8.90;2.70;;;8.20;83.70;;;;;;5034380;28;20178;-92
2021/01/12 10:44:51;;;;;;;10.73;3.37;;;8.30;82.40;;;;;;5033520;28;20177;-92
2021/01/12 10:47:17;;;;;;;9.23;3.27;;;8.50;82.10;;;;;;5037875;28;20413;-92
2021/01/12 10:49:43;;;;;;;5.77;2.10;;;8.80;81.50;;;;;;5033631;28;20427;-92
2021/01/12 10:52:08;;;;;;;11.43;4.00;;;9.00;80.70;;;;;;5034197;28;20178;-92
2021/01/12 10:54:35;;;;;;;18.97;3.53;;;8.70;80.20;;;;;;5030702;28;20177;-92
2021/01/12 10:57:02;;;;;;;11.10;2.88;;;8.50;80.70;;;;;;5014115;28;20182;-92
2021/01/12 10:59:28;;;;;;;10.57;2.30;;;8.80;80.90;;;;;;5012715;28;20202;-93
2021/01/12 11:01:54;;;;;;;3.95;1.77;;;8.70;79.60;;;;;;5013885;28;20200;-92
2021/01/12 11:04:24;;;;;;;11.70;2.90;;;8.40;80.50;;;;;;5027000;28;20201;-92
2021/01/12 11:06:51;;;;;;;15.25;3.95;;;8.20;81.10;;;;;;5040277;28;20240;-93
2021/01/12 11:09:19;;;;;;;10.00;3.30;;;8.30;81.50;;;;;;5038101;28;20667;-92
2021/01/12 11:11:45;;;;;;;9.20;1.92;;;8.50;80.90;;;;;;5033498;28;20178;-92
2021/01/12 11:14:10;;;;;;;6.63;1.90;;;8.40;80.20;;;;;;5034330;28;20186;-92
2021/01/12 11:16:39;;;;;;;5.13;1.60;;;8.20;79.80;;;;;;5033606;28;20420;-92
2021/01/12 11:19:08;;;;;;;15.38;3.47;;;8.50;79.10;;;;;;5033022;28;20301;-93
2021/01/12 11:21:54;;;;;;;15.32;2.40;;;8.50;78.70;;;;;;5033755;28;20178;-92
2021/01/12 11:24:23;;;;;;;10.30;2.83;;;8.50;78.10;;;;;;5033943;28;20225;-93
2021/01/12 11:26:49;;;;;;;12.02;3.05;;;8.70;77.90;;;;;;5037181;28;20177;-93
2021/01/12 11:29:16;;;;;;;4.80;1.67;;;8.70;77.80;;;;;;5037437;28;20569;-93
2021/01/12 11:31:43;;;;;;;17.05;3.55;;;8.50;77.50;;;;;;5037855;28;20563;-94
2021/01/12 11:34:10;;;;;;;8.90;1.83;;;8.60;77.20;;;;;;5041920;28;20174;-93
2021/01/12 11:36:39;;;;;;;15.60;2.92;;;8.60;77.70;;;;;;5040384;28;20188;-93
2021/01/12 11:39:09;;;;;;;5.40;2.53;;;8.60;77.30;;;;;;5038658;28;20562;-93
2021/01/12 11:41:44;;;;;;;15.07;2.83;;;8.90;77.40;;;;;;5042238;28;20181;-93
2021/01/12 11:44:09;;;;;;;8.95;2.42;;;8.60;76.30;;;;;;5041186;28;20206;-92
2021/01/12 11:46:35;;;;;;;8.17;1.60;;;8.40;76.90;;;;;;5039447;28;20178;-92
2021/01/12 11:49:01;;;;;;;5.50;1.87;;;8.00;77.10;;;;;;5046296;28;20904;-91
2021/01/12 11:51:53;;;;;;;13.73;2.70;;;7.90;77.50;;;;;;5040395;28;20174;-92
2021/01/12 11:54:19;;;;;;;6.95;2.38;;;8.30;77.20;;;;;;5035873;28;20484;-92
2021/01/12 11:56:56;;;;;;;18.03;2.60;;;8.40;77.00;;;;;;5042388;28;20216;-92
2021/01/12 11:59:25;;;;;;;14.00;2.35;;;8.40;77.10;;;;;;5039074;28;20207;-92
2021/01/12 12:01:53;;;;;;;3.70;1.70;;;8.10;77.20;;;;;;5041826;28;20193;-92
2021/01/12 12:04:20;;;;;;;5.10;1.40;;;8.20;77.20;;;;;;5043475;28;20674;-93
2021/01/12 12:06:50;;;;;;;2.28;2.05;;;8.30;77.20;;;;;;5042736;28;20196;-93
2021/01/12 12:09:17;;;;;;;7.88;2.72;;;8.30;76.50;;;;;;5044294;28;20202;-92
2021/01/12 12:11:43;;;;;;;9.35;1.15;;;8.10;75.30;;;;;;5056341;28;20213;-93
2021/01/12 12:14:10;;;;;;;4.80;1.30;;;8.10;75.10;;;;;;5060842;28;20192;-92
2021/01/12 12:16:36;;;;;;;4.43;1.45;;;8.10;75.00;;;;;;5060794;28;20194;-90
2021/01/12 12:19:03;;;;;;;3.72;1.33;;;8.20;75.70;;;;;;5060034;28;20185;-91
2021/01/12 12:21:29;;;;;;;4.30;1.60;;;8.00;77.00;;;;;;5059159;28;20192;-90
2021/01/12 12:23:55;;;;;;;1.47;1.27;;;7.60;78.70;;;;;;5060463;28;20198;-92
2021/01/12 12:26:21;;;;;;;6.70;1.40;;;7.50;80.10;;;;;;5060729;28;20415;-91
2021/01/12 12:28:47;;;;;;;4.43;1.30;;;7.40;80.40;;;;;;5060257;28;20185;-91
2021/01/12 12:31:13;;;;;;;7.90;1.37;;;7.60;79.80;;;;;;5053195;28;20447;-91
2021/01/12 12:33:40;;;;;;;4.50;1.40;;;7.60;79.20;;;;;;5049129;28;20189;-90
2021/01/12 12:36:11;;;;;;;6.38;1.83;;;7.50;78.40;;;;;;5053597;28;20198;-90
2021/01/12 12:38:40;;;;;;;10.23;1.60;;;7.60;77.90;;;;;;5048678;28;20170;-90
2021/01/12 12:41:13;;;;;;;8.30;1.63;;;7.70;77.30;;;;;;5048087;28;20224;-92
2021/01/12 12:43:40;;;;;;;7.30;1.70;;;7.90;77.10;;;;;;5043616;28;20201;-91
2021/01/12 12:46:07;;;;;;;6.60;1.70;;;8.00;76.70;;;;;;5041636;28;20174;-92
2021/01/12 12:48:33;;;;;;;7.53;1.55;;;8.20;77.00;;;;;;5041076;28;20228;-91
2021/01/12 12:50:59;;;;;;;5.90;2.38;;;7.70;76.50;;;;;;5046155;28;20209;-91
2021/01/12 12:53:26;;;;;;;9.93;2.67;;;7.80;77.40;;;;;;5045162;28;20249;-92
2021/01/12 12:55:52;;;;;;;17.65;4.28;;;7.90;77.20;;;;;;5043828;28;20205;-94